Time;durP1;ratioP1;P1;durP2;ratioP2;P2;SDS_P1;SDS_P2;PMS_P1;PMS_P2;Temp;Humidity;BMP_temperature;BMP_pressure;BME280_temperature;BME280_humidity;BME280_pressure;Samples;Min_cycle;Max_cycle;Signal;HPM_P1;HPM_P2
2021/07/27 00:00:08;;;;;;;;;;;22.20;82.20;22.20;99463.00;;;;344645;28;83574;-91
2021/07/27 00:00:19;;;;;;;;;;;22.20;82.20;22.30;99464.00;;;;341246;28;97066;-91
2021/07/27 00:00:32;;;;;;;;;;;22.10;82.60;22.20;99468.00;;;;346125;28;83424;-91
2021/07/27 00:00:44;;;;;;;;;;;22.10;82.80;22.10;99460.00;;;;345318;28;96502;-91
2021/07/27 00:00:56;;;;;;;;;;;22.10;82.90;22.10;99466.00;;;;344473;28;82602;-90
2021/07/27 00:01:08;;;;;;;;;;;22.10;83.00;22.10;99453.00;;;;345139;28;97617;-90
2021/07/27 00:01:20;;;;;;;;;;;22.10;82.70;22.20;99464.00;;;;347486;28;83729;-91
2021/07/27 00:01:32;;;;;;;;;;;22.10;82.60;22.20;99458.00;;;;345235;28;96722;-90
2021/07/27 00:01:44;;;;;;;;;;;22.10;82.50;22.10;99452.00;;;;343302;28;83440;-90
2021/07/27 00:01:56;;;;;;;;;;;22.20;82.70;22.30;99456.00;;;;342527;28;95329;-91
2021/07/27 00:02:08;;;;;;;;;;;22.10;82.60;22.30;99462.00;;;;344704;28;83406;-90
2021/07/27 00:02:20;;;;;;;;;;;22.10;82.60;22.40;99455.00;;;;343817;28;97084;-90
2021/07/27 00:02:32;;;;;;;;;;;22.10;82.70;22.40;99458.00;;;;344567;28;83194;-91
2021/07/27 00:02:43;;;;;;;;;;;22.20;82.70;22.30;99459.00;;;;342619;28;96496;-90
2021/07/27 00:02:56;;;;;;;;;;;22.10;82.50;22.30;99450.00;;;;344669;28;83355;-90
2021/07/27 00:03:07;;;;;;;;;;;22.20;82.70;22.30;99458.00;;;;341229;28;94902;-90
2021/07/27 00:03:20;;;;;;;;;;;22.20;82.50;22.20;99453.00;;;;343353;28;82481;-90
2021/07/27 00:03:32;;;;;;;;;;;22.20;82.50;22.10;99462.00;;;;343916;28;95862;-90
2021/07/27 00:03:45;;;;;;;;;;;22.20;82.60;22.20;99457.00;;;;344726;28;83485;-90
2021/07/27 00:03:57;;;;;;;;;;;22.20;82.60;22.10;99459.00;;;;343636;28;96820;-90
2021/07/27 00:04:08;;;;;;;;;;;22.20;82.80;22.20;99449.00;;;;347423;28;82595;-91
2021/07/27 00:04:20;;;;;;;;;;;22.10;82.70;22.20;99455.00;;;;345221;28;95881;-90
2021/07/27 00:04:32;;;;;;;;;;;22.10;83.10;22.20;99452.00;;;;346074;28;82485;-90
2021/07/27 00:04:44;;;;;;;;;;;22.20;82.50;22.10;99453.00;;;;343931;28;96937;-91
2021/07/27 00:04:55;;;;;;;;;;;22.20;82.80;22.20;99458.00;;;;347070;28;83529;-91
2021/07/27 00:05:07;;;;;;;;;;;22.20;82.80;22.10;99456.00;;;;346634;28;98052;-90
2021/07/27 00:05:19;;;;;;;;;;;22.10;82.50;22.10;99451.00;;;;342908;28;83601;-91
2021/07/27 00:05:31;;;;;;;;;;;22.10;82.70;22.10;99452.00;;;;345315;28;92867;-90
2021/07/27 00:05:43;;;;;;;;;;;22.10;82.60;22.10;99449.00;;;;344706;28;83532;-91
2021/07/27 00:06:15;;;;;;;;;;;22.10;82.60;22.20;99462.00;;;;341197;28;96740;-90
2021/07/27 00:06:27;;;;;;;;;;;22.10;82.50;22.30;99454.00;;;;346079;28;83418;-91
2021/07/27 00:06:39;;;;;;;;;;;22.10;82.40;22.30;99452.00;;;;343967;28;96098;-90
2021/07/27 00:06:53;;;;;;;;;;;22.10;82.60;22.30;99452.00;;;;344243;28;83674;-91
2021/07/27 00:07:05;;;;;;;;;;;22.10;82.50;22.40;99456.00;;;;341741;28;96736;-90
2021/07/27 00:07:16;;;;;;;;;;;22.10;82.50;22.30;99455.00;;;;347417;28;82513;-91
2021/07/27 00:07:28;;;;;;;;;;;22.10;82.40;22.30;99460.00;;;;346630;28;97788;-90
2021/07/27 00:07:40;;;;;;;;;;;22.10;82.40;22.20;99455.00;;;;344684;28;82601;-91
2021/07/27 00:07:52;;;;;;;;;;;22.10;82.40;22.20;99459.00;;;;345191;28;97439;-91
2021/07/27 00:08:05;;;;;;;;;;;22.10;82.50;22.30;99456.00;;;;343459;28;83482;-90
2021/07/27 00:08:16;;;;;;;;;;;22.10;82.30;22.20;99455.00;;;;345295;28;97194;-90
2021/07/27 00:08:28;;;;;;;;;;;22.10;82.70;22.30;99451.00;;;;344701;28;82522;-90
2021/07/27 00:08:40;;;;;;;;;;;22.10;82.80;22.40;99454.00;;;;341038;28;96440;-90
2021/07/27 00:08:52;;;;;;;;;;;22.10;82.60;22.40;99450.00;;;;343296;28;83534;-91
2021/07/27 00:09:04;;;;;;;;;;;22.10;82.50;22.30;99441.00;;;;343963;28;96328;-90
2021/07/27 00:09:15;;;;;;;;;;;22.10;82.40;22.30;99453.00;;;;344799;28;83418;-90
2021/07/27 00:09:27;;;;;;;;;;;22.20;82.40;22.30;99449.00;;;;342558;28;97186;-90
2021/07/27 00:09:39;;;;;;;;;;;22.20;82.30;22.20;99454.00;;;;344645;28;83627;-90
2021/07/27 00:09:51;;;;;;;;;;;22.10;82.40;22.30;99450.00;;;;343120;28;95865;-91
2021/07/27 00:10:05;;;;;;;;;;;22.10;82.50;22.30;99446.00;;;;345980;28;83417;-90
2021/07/27 00:10:17;;;;;;;;;;;22.20;82.40;22.30;99450.00;;;;339930;28;96687;-91
2021/07/27 00:10:28;;;;;;;;;;;22.10;82.10;22.30;99442.00;;;;342015;28;83432;-90
2021/07/27 00:10:40;;;;;;;;;;;22.10;82.10;22.40;99447.00;;;;342553;28;96790;-91
2021/07/27 00:10:53;;;;;;;;;;;22.10;82.20;22.40;99455.00;;;;344602;28;83371;-90
2021/07/27 00:11:07;;;;;;;;;;;22.20;82.30;22.30;99442.00;;;;343933;28;96253;-90
2021/07/27 00:11:19;;;;;;;;;;;22.10;82.40;22.30;99451.00;;;;346047;28;83564;-90
2021/07/27 00:11:31;;;;;;;;;;;22.10;82.30;22.30;99451.00;;;;343861;28;96928;-91
2021/07/27 00:11:42;;;;;;;;;;;22.10;82.20;22.20;99442.00;;;;345886;28;83495;-91
2021/07/27 00:11:54;;;;;;;;;;;22.10;82.40;22.20;99456.00;;;;342478;28;96178;-91
2021/07/27 00:12:06;;;;;;;;;;;22.20;82.40;22.20;99451.00;;;;346067;28;82545;-91
2021/07/27 00:12:18;;;;;;;;;;;22.10;82.50;22.10;99449.00;;;;346606;27;96847;-90
2021/07/27 00:12:30;;;;;;;;;;;22.10;82.60;22.10;99455.00;;;;343334;28;83361;-91
2021/07/27 00:12:41;;;;;;;;;;;22.10;82.50;22.10;99451.00;;;;345298;28;96123;-90
2021/07/27 00:12:54;;;;;;;;;;;22.10;82.60;22.10;99443.00;;;;345519;28;82722;-90
2021/07/27 00:13:06;;;;;;;;;;;22.10;82.40;22.20;99453.00;;;;342435;28;96411;-90
2021/07/27 00:13:17;;;;;;;;;;;22.10;82.30;22.20;99449.00;;;;347364;28;83458;-91
2021/07/27 00:13:29;;;;;;;;;;;22.10;82.10;22.20;99454.00;;;;345219;28;96527;-92
2021/07/27 00:13:41;;;;;;;;;;;22.10;82.00;22.20;99448.00;;;;344694;28;82501;-90
2021/07/27 00:13:53;;;;;;;;;;;22.10;82.10;22.20;99448.00;;;;345796;28;95416;-91
2021/07/27 00:14:05;;;;;;;;;;;22.10;82.20;22.30;99449.00;;;;346134;28;82467;-90
2021/07/27 00:14:17;;;;;;;;;;;22.10;82.40;22.20;99449.00;;;;342518;28;96283;-90
2021/07/27 00:14:29;;;;;;;;;;;22.10;82.60;22.10;99444.00;;;;346133;28;83434;-90
2021/07/27 00:14:41;;;;;;;;;;;22.10;82.50;22.10;99451.00;;;;342541;28;96277;-91
2021/07/27 00:14:53;;;;;;;;;;;22.10;82.50;22.10;99452.00;;;;346050;28;83320;-90
2021/07/27 00:15:05;;;;;;;;;;;22.10;82.80;22.10;99454.00;;;;343638;28;95672;-91
2021/07/27 00:15:17;;;;;;;;;;;22.10;82.60;22.10;99449.00;;;;343301;28;83426;-90
2021/07/27 00:15:29;;;;;;;;;;;22.10;82.60;22.20;99454.00;;;;345200;28;97441;-90
2021/07/27 00:15:42;;;;;;;;;;;22.10;82.40;22.10;99457.00;;;;346016;28;83484;-91
2021/07/27 00:15:54;;;;;;;;;;;22.10;82.60;22.10;99460.00;;;;344142;28;96599;-90
2021/07/27 00:16:05;;;;;;;;;;;22.00;82.50;22.20;99453.00;;;;344069;28;83482;-91
2021/07/27 00:16:17;;;;;;;;;;;22.00;82.80;22.30;99457.00;;;;343871;28;94914;-91
2021/07/27 00:16:29;;;;;;;;;;;22.00;82.70;22.20;99449.00;;;;347493;28;82702;-91
2021/07/27 00:16:41;;;;;;;;;;;22.00;82.60;22.20;99457.00;;;;345237;28;96626;-91
2021/07/27 00:16:53;;;;;;;;;;;22.00;82.30;22.10;99451.00;;;;343732;28;83662;-90
2021/07/27 00:17:05;;;;;;;;;;;22.00;82.60;22.10;99452.00;;;;343704;28;96763;-90
2021/07/27 00:17:17;;;;;;;;;;;22.10;82.70;22.10;99451.00;;;;346070;28;83398;-90
2021/07/27 00:17:29;;;;;;;;;;;22.00;82.70;22.10;99447.00;;;;343927;28;96756;-90
2021/07/27 00:17:42;;;;;;;;;;;22.00;82.70;22.10;99457.00;;;;343304;28;82487;-91
2021/07/27 00:17:54;;;;;;;;;;;22.10;82.70;22.10;99457.00;;;;342613;28;95651;-90
2021/07/27 00:18:07;;;;;;;;;;;22.00;82.80;22.10;99453.00;;;;343315;28;83497;-90
2021/07/27 00:18:19;;;;;;;;;;;22.00;82.70;22.10;99460.00;;;;341161;28;96528;-90
2021/07/27 00:18:31;;;;;;;;;;;22.00;82.40;22.20;99456.00;;;;344753;28;83382;-90
2021/07/27 00:18:43;;;;;;;;;;;22.00;82.40;22.20;99458.00;;;;343972;28;96191;-91
2021/07/27 00:18:55;;;;;;;;;;;22.10;82.80;22.30;99454.00;;;;343116;28;82563;-92
2021/07/27 00:19:07;;;;;;;;;;;22.10;82.90;22.30;99451.00;;;;343705;28;95336;-91
2021/07/27 00:19:19;;;;;;;;;;;22.00;82.70;22.30;99450.00;;;;343689;28;83388;-91
2021/07/27 00:19:31;;;;;;;;;;;22.10;82.70;22.10;99458.00;;;;344938;28;96622;-90
2021/07/27 00:19:43;;;;;;;;;;;22.10;82.80;22.10;99457.00;;;;344800;28;82487;-90
2021/07/27 00:19:56;;;;;;;;;;;22.10;82.90;22.10;99460.00;;;;340630;28;95885;-91
2021/07/27 00:20:08;;;;;;;;;;;22.10;83.10;22.00;99460.00;;;;344660;28;83298;-90
2021/07/27 00:20:20;;;;;;;;;;;22.00;83.40;22.00;99457.00;;;;342500;28;96676;-90
2021/07/27 00:20:32;;;;;;;;;;;22.00;83.40;22.10;99455.00;;;;343353;28;82541;-91
2021/07/27 00:20:45;;;;;;;;;;;22.00;83.20;22.10;99460.00;;;;342540;28;96896;-90
2021/07/27 00:20:58;;;;;;;;;;;22.00;83.10;22.10;99458.00;;;;343099;28;83367;-90
2021/07/27 00:21:10;;;;;;;;;;;22.00;83.30;22.10;99455.00;;;;342559;28;96794;-91
2021/07/27 00:21:22;;;;;;;;;;;22.00;82.90;22.10;99456.00;;;;344699;28;83353;-90
2021/07/27 00:21:33;;;;;;;;;;;22.00;82.70;22.20;99448.00;;;;341142;28;96382;-91
2021/07/27 00:21:45;;;;;;;;;;;22.00;83.10;22.20;99456.00;;;;342655;28;83516;-91
2021/07/27 00:21:57;;;;;;;;;;;22.00;83.30;22.20;99457.00;;;;341949;28;95966;-91
2021/07/27 00:22:09;;;;;;;;;;;22.00;83.10;22.30;99449.00;;;;343314;28;83513;-90
2021/07/27 00:22:21;;;;;;;;;;;22.00;83.10;22.30;99450.00;;;;341233;28;97021;-90
2021/07/27 00:22:33;;;;;;;;;;;22.00;83.00;22.30;99455.00;;;;344721;28;83416;-91
2021/07/27 00:22:45;;;;;;;;;;;22.00;83.00;22.20;99447.00;;;;346465;28;95529;-90
2021/07/27 00:22:57;;;;;;;;;;;22.00;83.30;22.20;99454.00;;;;346039;28;83437;-91
2021/07/27 00:23:09;;;;;;;;;;;22.00;83.20;22.10;99453.00;;;;342574;28;95585;-90
2021/07/27 00:23:21;;;;;;;;;;;22.00;83.10;22.00;99453.00;;;;346121;28;83397;-91
2021/07/27 00:23:34;;;;;;;;;;;22.00;83.10;22.00;99453.00;;;;343991;28;96381;-91
2021/07/27 00:23:46;;;;;;;;;;;22.00;83.20;22.00;99450.00;;;;344797;28;83535;-90
2021/07/27 00:23:58;;;;;;;;;;;22.00;83.30;22.00;99454.00;;;;344140;28;96704;-89
2021/07/27 00:24:10;;;;;;;;;;;22.00;83.40;22.00;99451.00;;;;347630;28;83215;-90
2021/07/27 00:24:26;;;;;;;;;;;22.00;83.10;22.10;99455.00;;;;345176;28;95750;-90
2021/07/27 00:24:38;;;;;;;;;;;22.00;83.00;22.20;99457.00;;;;346242;28;83517;-91
2021/07/27 00:24:51;;;;;;;;;;;22.00;83.30;22.30;99444.00;;;;341845;28;96918;-91
2021/07/27 00:25:04;;;;;;;;;;;22.00;83.20;22.20;99454.00;;;;346063;28;82530;-91
2021/07/27 00:25:16;;;;;;;;;;;22.00;83.20;22.10;99454.00;;;;345358;28;95579;-90
2021/07/27 00:25:28;;;;;;;;;;;22.00;83.20;22.10;99457.00;;;;342158;28;82525;-90
2021/07/27 00:25:40;;;;;;;;;;;22.00;83.10;22.20;99457.00;;;;343984;28;97414;-91
2021/07/27 00:25:52;;;;;;;;;;;22.00;82.90;22.30;99449.00;;;;346152;28;82540;-90
2021/07/27 00:26:11;;;;;;;;;;;22.00;83.10;22.20;99457.00;;;;345373;28;96821;-91
2021/07/27 00:26:25;;;;;;;;;;;22.00;83.20;22.10;99455.00;;;;344844;28;83559;-90
2021/07/27 00:26:36;;;;;;;;;;;22.00;83.20;22.10;99460.00;;;;342702;28;96794;-90
2021/07/27 00:26:48;;;;;;;;;;;22.00;83.30;22.10;99460.00;;;;343626;28;83323;-91
2021/07/27 00:27:00;;;;;;;;;;;22.00;83.10;22.10;99457.00;;;;345131;28;95795;-91
2021/07/27 00:27:12;;;;;;;;;;;22.00;83.30;22.00;99465.00;;;;342163;28;83349;-91
2021/07/27 00:27:24;;;;;;;;;;;22.00;83.30;21.90;99458.00;;;;343753;28;95619;-90
2021/07/27 00:27:37;;;;;;;;;;;22.00;83.50;21.90;99456.00;;;;345946;28;82577;-90
2021/07/27 00:27:48;;;;;;;;;;;21.90;83.40;21.80;99457.00;;;;345037;28;96781;-90
2021/07/27 00:28:00;;;;;;;;;;;21.90;83.30;21.90;99454.00;;;;345874;28;83622;-90
2021/07/27 00:28:12;;;;;;;;;;;21.90;83.30;21.90;99458.00;;;;344149;28;96221;-90
2021/07/27 00:28:24;;;;;;;;;;;21.90;83.20;22.00;99462.00;;;;344199;28;83588;-91
2021/07/27 00:28:36;;;;;;;;;;;21.90;83.20;22.00;99457.00;;;;342574;28;95939;-90
2021/07/27 00:28:48;;;;;;;;;;;21.90;83.10;22.10;99459.00;;;;343325;28;83462;-91
2021/07/27 00:28:59;;;;;;;;;;;21.90;83.10;22.10;99453.00;;;;343846;28;97328;-91
2021/07/27 00:29:12;;;;;;;;;;;21.90;83.10;22.00;99463.00;;;;346080;28;83325;-90
2021/07/27 00:29:23;;;;;;;;;;;22.00;83.30;21.90;99460.00;;;;345284;28;96394;-91
2021/07/27 00:29:35;;;;;;;;;;;22.00;83.50;21.90;99448.00;;;;344674;28;82496;-91
2021/07/27 00:29:47;;;;;;;;;;;21.90;83.70;21.90;99452.00;;;;344057;28;94815;-90
2021/07/27 00:29:59;;;;;;;;;;;21.90;83.70;21.90;99450.00;;;;346033;28;83441;-91
2021/07/27 00:30:11;;;;;;;;;;;21.90;83.70;21.90;99448.00;;;;343936;28;96516;-91
2021/07/27 00:30:23;;;;;;;;;;;21.90;83.70;21.80;99451.00;;;;346044;28;83447;-91
2021/07/27 00:30:35;;;;;;;;;;;21.90;83.70;21.80;99451.00;;;;345144;28;96536;-91
2021/07/27 00:30:47;;;;;;;;;;;21.90;83.70;21.80;99452.00;;;;344661;28;83424;-91
2021/07/27 00:30:59;;;;;;;;;;;21.90;83.60;21.80;99457.00;;;;346473;28;96601;-89
2021/07/27 00:31:16;;;;;;;;;;;21.90;83.80;21.80;99455.00;;;;346105;28;83429;-90
2021/07/27 00:31:28;;;;;;;;;;;21.90;84.00;21.80;99448.00;;;;345260;28;96958;-91
2021/07/27 00:31:41;;;;;;;;;;;21.90;83.70;21.80;99455.00;;;;347486;27;83406;-91
2021/07/27 00:31:52;;;;;;;;;;;21.90;84.40;21.80;99448.00;;;;345161;28;96450;-91
2021/07/27 00:32:05;;;;;;;;;;;21.90;84.00;21.80;99445.00;;;;343271;28;83499;-91
2021/07/27 00:32:17;;;;;;;;;;;21.90;83.70;21.70;99456.00;;;;342564;28;95262;-91
2021/07/27 00:32:29;;;;;;;;;;;21.90;83.90;21.80;99451.00;;;;346070;28;83457;-90
2021/07/27 00:32:42;;;;;;;;;;;21.90;84.10;21.80;99454.00;;;;343991;28;96102;-91
2021/07/27 00:32:54;;;;;;;;;;;21.90;84.10;21.80;99454.00;;;;346036;28;83358;-90
2021/07/27 00:33:06;;;;;;;;;;;21.80;83.90;21.90;99449.00;;;;345066;28;95876;-91
2021/07/27 00:33:18;;;;;;;;;;;21.90;83.90;22.00;99451.00;;;;344542;28;83462;-90
2021/07/27 00:33:30;;;;;;;;;;;21.80;83.70;21.80;99456.00;;;;343685;28;97176;-91
2021/07/27 00:33:41;;;;;;;;;;;21.90;83.70;21.80;99453.00;;;;344674;28;83497;-90
2021/07/27 00:33:53;;;;;;;;;;;21.80;83.80;21.80;99457.00;;;;341869;28;96530;-91
2021/07/27 00:34:05;;;;;;;;;;;21.90;84.20;21.80;99459.00;;;;345166;28;82580;-90
2021/07/27 00:34:17;;;;;;;;;;;21.80;84.10;21.80;99453.00;;;;345108;28;96689;-90
2021/07/27 00:34:29;;;;;;;;;;;21.80;83.90;21.80;99451.00;;;;343135;28;83470;-91
2021/07/27 00:34:41;;;;;;;;;;;21.90;83.60;21.90;99455.00;;;;345403;28;95511;-91
2021/07/27 00:34:55;;;;;;;;;;;21.90;83.40;21.80;99454.00;;;;348103;27;82543;-90
2021/07/27 00:35:09;;;;;;;;;;;21.80;83.70;21.70;99450.00;;;;345276;28;96568;-91
2021/07/27 00:35:21;;;;;;;;;;;21.80;83.90;21.80;99456.00;;;;344741;28;82435;-91
2021/07/27 00:35:33;;;;;;;;;;;21.80;84.10;21.80;99443.00;;;;342435;28;97004;-90
2021/07/27 00:35:45;;;;;;;;;;;21.80;84.00;21.90;99456.00;;;;346177;28;83451;-90
2021/07/27 00:35:59;;;;;;;;;;;21.80;83.80;21.80;99448.00;;;;344799;28;96735;-90
2021/07/27 00:36:11;;;;;;;;;;;21.80;84.20;21.80;99449.00;;;;343305;28;82471;-91
2021/07/27 00:36:23;;;;;;;;;;;21.80;84.10;21.80;99455.00;;;;345254;28;95561;-91
2021/07/27 00:36:35;;;;;;;;;;;21.80;84.10;21.70;99460.00;;;;346054;28;83433;-91
2021/07/27 00:36:47;;;;;;;;;;;21.80;84.10;21.60;99456.00;;;;343780;28;95868;-91
2021/07/27 00:36:59;;;;;;;;;;;21.80;84.20;21.60;99448.00;;;;345570;28;83464;-90
2021/07/27 00:37:17;;;;;;;;;;;21.80;84.20;21.50;99445.00;;;;343906;28;96601;-91
2021/07/27 00:37:31;;;;;;;;;;;21.80;84.30;21.50;99456.00;;;;343378;28;83295;-91
2021/07/27 00:37:45;;;;;;;;;;;21.80;84.60;21.60;99456.00;;;;345280;28;96721;-91
2021/07/27 00:38:21;;;;;;;;;;;21.70;84.30;21.80;99456.00;;;;344736;28;83314;-90
2021/07/27 00:38:30;;;;;;;;;;;21.70;84.20;21.80;99454.00;;;;344856;28;97406;-90
2021/07/27 00:38:42;;;;;;;;;;;21.70;84.00;21.90;99448.00;;;;346043;28;83438;-91
2021/07/27 00:38:56;;;;;;;;;;;21.70;84.00;21.90;99453.00;;;;343760;28;96823;-90
2021/07/27 00:39:08;;;;;;;;;;;21.70;83.90;21.90;99452.00;;;;344578;28;82557;-91
2021/07/27 00:39:19;;;;;;;;;;;21.70;83.80;21.90;99450.00;;;;346700;28;97606;-90
2021/07/27 00:39:31;;;;;;;;;;;21.70;83.70;21.80;99456.00;;;;341901;28;83378;-91
2021/07/27 00:39:43;;;;;;;;;;;21.70;83.90;21.70;99456.00;;;;343881;28;95973;-90
2021/07/27 00:39:55;;;;;;;;;;;21.70;84.10;21.70;99455.00;;;;345207;28;83479;-90
2021/07/27 00:40:07;;;;;;;;;;;21.70;84.10;21.70;99451.00;;;;342054;28;95320;-90
2021/07/27 00:40:19;;;;;;;;;;;21.70;84.20;21.70;99451.00;;;;345894;28;82651;-90
2021/07/27 00:40:31;;;;;;;;;;;21.70;84.30;21.80;99453.00;;;;343652;28;96746;-91
2021/07/27 00:40:44;;;;;;;;;;;21.70;84.10;21.80;99449.00;;;;346105;28;83349;-90
2021/07/27 00:40:55;;;;;;;;;;;21.70;84.20;21.80;99444.00;;;;345021;28;96489;-90
2021/07/27 00:41:07;;;;;;;;;;;21.70;84.00;21.90;99452.00;;;;347411;28;83420;-91
2021/07/27 00:41:19;;;;;;;;;;;21.70;83.90;21.90;99446.00;;;;342530;28;97207;-90
2021/07/27 00:41:31;;;;;;;;;;;21.70;84.70;21.90;99447.00;;;;344600;28;83448;-91
2021/07/27 00:41:42;;;;;;;;;;;21.70;84.10;21.90;99455.00;;;;343927;28;95507;-91
2021/07/27 00:41:54;;;;;;;;;;;21.70;84.10;21.80;99445.00;;;;346107;28;83456;-90
2021/07/27 00:42:06;;;;;;;;;;;21.80;84.30;21.90;99452.00;;;;346637;28;95632;-91
2021/07/27 00:42:18;;;;;;;;;;;21.80;84.30;21.80;99451.00;;;;345798;28;82612;-90
2021/07/27 00:42:31;;;;;;;;;;;21.70;84.10;21.80;99449.00;;;;345254;28;96349;-91
2021/07/27 00:42:46;;;;;;;;;;;21.80;84.00;21.80;99456.00;;;;346137;28;82464;-91
2021/07/27 00:43:05;;;;;;;;;;;21.70;84.40;21.80;99448.00;;;;347370;27;96045;-91
2021/07/27 00:43:18;;;;;;;;;;;21.80;84.10;21.80;99451.00;;;;345974;28;83443;-90
2021/07/27 00:43:29;;;;;;;;;;;21.70;84.40;21.90;99453.00;;;;343865;28;97042;-91
2021/07/27 00:43:41;;;;;;;;;;;21.70;84.10;21.80;99452.00;;;;341896;28;83561;-90
2021/07/27 00:43:56;;;;;;;;;;;21.70;84.20;21.90;99449.00;;;;346388;28;96480;-90
2021/07/27 00:44:08;;;;;;;;;;;21.80;84.00;21.90;99460.00;;;;345953;28;83542;-90
2021/07/27 00:44:20;;;;;;;;;;;21.70;84.00;21.80;99450.00;;;;342438;28;96316;-90
2021/07/27 00:44:32;;;;;;;;;;;21.70;84.30;21.70;99459.00;;;;346082;28;83385;-90
2021/07/27 00:44:44;;;;;;;;;;;21.70;84.70;21.70;99459.00;;;;343813;28;98187;-90
2021/07/27 00:44:55;;;;;;;;;;;21.70;84.50;21.70;99456.00;;;;343283;28;83507;-90
2021/07/27 00:45:08;;;;;;;;;;;21.70;84.50;21.80;99450.00;;;;346605;28;96634;-90
2021/07/27 00:45:20;;;;;;;;;;;21.70;84.10;21.80;99454.00;;;;344632;28;83389;-90
2021/07/27 00:45:32;;;;;;;;;;;21.70;84.10;21.80;99456.00;;;;343575;28;95885;-91
2021/07/27 00:45:43;;;;;;;;;;;21.70;84.10;21.90;99462.00;;;;347441;28;83437;-90
2021/07/27 00:45:55;;;;;;;;;;;21.70;84.10;21.90;99454.00;;;;344929;28;96878;-91
2021/07/27 00:46:07;;;;;;;;;;;21.70;84.10;21.90;99450.00;;;;346200;28;83524;-91
2021/07/27 00:46:19;;;;;;;;;;;21.70;83.90;21.80;99451.00;;;;345590;28;96561;-91
2021/07/27 00:46:31;;;;;;;;;;;21.70;84.20;21.80;99456.00;;;;343351;28;83355;-91
2021/07/27 00:46:43;;;;;;;;;;;21.70;84.20;21.80;99454.00;;;;342470;28;97076;-90
2021/07/27 00:46:55;;;;;;;;;;;21.70;84.00;21.80;99460.00;;;;343184;28;83362;-91
2021/07/27 00:47:07;;;;;;;;;;;21.70;84.10;21.70;99460.00;;;;342321;28;95634;-90
2021/07/27 00:47:19;;;;;;;;;;;21.70;84.30;21.90;99461.00;;;;343210;28;82627;-90
2021/07/27 00:47:30;;;;;;;;;;;21.70;84.10;21.80;99458.00;;;;343921;28;96695;-90
2021/07/27 00:47:42;;;;;;;;;;;21.70;84.30;21.90;99458.00;;;;343278;28;82586;-90
2021/07/27 00:47:54;;;;;;;;;;;21.70;84.30;21.90;99455.00;;;;342573;28;96077;-91
2021/07/27 00:48:06;;;;;;;;;;;21.70;84.30;21.80;99461.00;;;;344725;28;82451;-90
2021/07/27 00:48:18;;;;;;;;;;;21.70;84.50;21.80;99455.00;;;;341285;28;97079;-91
2021/07/27 00:48:30;;;;;;;;;;;21.70;85.20;21.80;99456.00;;;;344955;28;82400;-91
2021/07/27 00:48:41;;;;;;;;;;;21.70;84.50;21.70;99467.00;;;;342698;28;96367;-90
2021/07/27 00:48:54;;;;;;;;;;;21.70;84.70;21.70;99464.00;;;;344485;28;82648;-91
2021/07/27 00:49:05;;;;;;;;;;;21.70;84.90;21.60;99465.00;;;;344047;28;95474;-90
2021/07/27 00:49:17;;;;;;;;;;;21.70;84.80;21.60;99466.00;;;;345211;28;82652;-90
2021/07/27 00:49:29;;;;;;;;;;;21.70;84.70;21.60;99462.00;;;;341554;28;95651;-91
2021/07/27 00:49:41;;;;;;;;;;;21.70;84.90;21.70;99466.00;;;;344856;28;83426;-90
2021/07/27 00:49:55;;;;;;;;;;;21.70;84.60;21.70;99453.00;;;;345686;28;91300;-90
2021/07/27 00:50:08;;;;;;;;;;;21.70;84.40;21.70;99466.00;;;;343582;28;83494;-91
2021/07/27 00:50:20;;;;;;;;;;;21.70;84.40;21.70;99467.00;;;;346958;28;95315;-91
2021/07/27 00:50:32;;;;;;;;;;;21.70;84.60;21.70;99462.00;;;;343586;28;82518;-90
2021/07/27 00:50:44;;;;;;;;;;;21.70;84.80;21.60;99465.00;;;;345363;28;97820;-90
2021/07/27 00:50:56;;;;;;;;;;;21.70;85.20;21.70;99450.00;;;;344879;28;82507;-90
2021/07/27 00:51:08;;;;;;;;;;;21.70;84.80;21.60;99462.00;;;;342826;28;92947;-90
2021/07/27 00:51:20;;;;;;;;;;;21.70;85.10;21.60;99462.00;;;;346308;28;83476;-90
2021/07/27 00:51:32;;;;;;;;;;;21.60;85.20;21.70;99459.00;;;;344175;28;95192;-90
2021/07/27 00:51:43;;;;;;;;;;;21.70;84.80;21.70;99460.00;;;;346016;28;83641;-90
2021/07/27 00:51:55;;;;;;;;;;;21.70;85.10;21.60;99461.00;;;;342562;28;96604;-90
2021/07/27 00:52:07;;;;;;;;;;;21.70;85.20;21.50;99458.00;;;;344570;28;82542;-90
2021/07/27 00:52:19;;;;;;;;;;;21.70;85.30;21.60;99463.00;;;;345398;28;95756;-91
2021/07/27 00:52:31;;;;;;;;;;;21.60;85.20;21.60;99465.00;;;;346429;28;82584;-90
2021/07/27 00:52:42;;;;;;;;;;;21.60;85.10;21.60;99464.00;;;;342708;28;96302;-90
2021/07/27 00:52:58;;;;;;;;;;;21.60;85.10;21.50;99460.00;;;;344850;28;83536;-91
2021/07/27 00:53:10;;;;;;;;;;;21.60;85.20;21.60;99462.00;;;;337383;28;95308;-90
2021/07/27 00:53:22;;;;;;;;;;;21.60;85.20;21.60;99454.00;;;;339485;28;83352;-90
2021/07/27 00:53:34;;;;;;;;;;;21.60;85.40;21.60;99451.00;;;;341386;28;95362;-91
2021/07/27 00:53:46;;;;;;;;;;;21.60;85.20;21.60;99459.00;;;;343483;28;83522;-90
2021/07/27 00:53:58;;;;;;;;;;;21.60;84.80;21.60;99463.00;;;;344349;28;95557;-91
2021/07/27 00:54:11;;;;;;;;;;;21.60;85.40;21.50;99462.00;;;;344898;28;82565;-91
2021/07/27 00:54:23;;;;;;;;;;;21.60;85.40;21.50;99459.00;;;;342770;28;95663;-90
2021/07/27 00:54:34;;;;;;;;;;;21.60;85.40;21.50;99458.00;;;;343644;28;83519;-91
2021/07/27 00:54:46;;;;;;;;;;;21.60;85.60;21.60;99457.00;;;;343753;28;97636;-91
2021/07/27 00:54:58;;;;;;;;;;;21.60;85.10;21.50;99457.00;;;;339886;28;82636;-91
2021/07/27 00:55:10;;;;;;;;;;;21.60;85.50;21.60;99456.00;;;;339826;28;96310;-90
2021/07/27 00:55:23;;;;;;;;;;;21.60;85.20;21.60;99456.00;;;;342071;28;83470;-90
2021/07/27 00:55:35;;;;;;;;;;;21.60;85.10;21.50;99460.00;;;;345147;28;97556;-90
2021/07/27 00:55:48;;;;;;;;;;;21.60;85.70;21.50;99455.00;;;;344689;28;83342;-90
2021/07/27 00:56:00;;;;;;;;;;;21.50;85.60;21.50;99454.00;;;;343875;28;93748;-91
2021/07/27 00:56:12;;;;;;;;;;;21.60;85.80;21.60;99463.00;;;;342874;28;83554;-90
2021/07/27 00:56:25;;;;;;;;;;;21.60;85.50;21.50;99460.00;;;;346576;27;95314;-91
2021/07/27 00:56:37;;;;;;;;;;;21.60;85.80;21.40;99461.00;;;;342034;28;82460;-90
2021/07/27 00:56:48;;;;;;;;;;;21.50;85.70;21.40;99455.00;;;;342458;28;97431;-91
2021/07/27 00:57:00;;;;;;;;;;;21.50;86.00;21.40;99460.00;;;;341880;28;83314;-91
2021/07/27 00:57:12;;;;;;;;;;;21.50;86.00;21.30;99455.00;;;;343791;28;97027;-90
2021/07/27 00:57:24;;;;;;;;;;;21.50;85.90;21.40;99450.00;;;;341924;28;82500;-90
2021/07/27 00:57:36;;;;;;;;;;;21.50;85.80;21.50;99454.00;;;;343815;28;94967;-90
2021/07/27 00:57:48;;;;;;;;;;;21.50;85.60;21.50;99453.00;;;;342801;28;83384;-91
2021/07/27 00:58:00;;;;;;;;;;;21.50;85.80;21.40;99461.00;;;;343666;28;96624;-91
2021/07/27 00:58:12;;;;;;;;;;;21.50;85.70;21.40;99469.00;;;;344578;28;83490;-91
2021/07/27 00:58:24;;;;;;;;;;;21.50;85.90;21.40;99465.00;;;;344868;28;96723;-91
2021/07/27 00:58:36;;;;;;;;;;;21.50;85.90;21.50;99461.00;;;;345975;28;82526;-91
2021/07/27 00:58:48;;;;;;;;;;;21.50;86.00;21.40;99461.00;;;;342473;28;97616;-91
2021/07/27 00:59:00;;;;;;;;;;;21.50;86.40;21.40;99462.00;;;;344611;28;82417;-91
2021/07/27 00:59:12;;;;;;;;;;;21.50;86.10;21.30;99459.00;;;;342350;28;95804;-91
2021/07/27 00:59:24;;;;;;;;;;;21.50;86.60;21.40;99462.00;;;;341903;28;82453;-91
2021/07/27 00:59:35;;;;;;;;;;;21.50;86.50;21.30;99467.00;;;;342361;28;96950;-91
2021/07/27 00:59:48;;;;;;;;;;;21.50;86.30;21.40;99468.00;;;;344544;28;83385;-91
2021/07/27 00:59:59;;;;;;;;;;;21.50;86.30;21.40;99460.00;;;;342480;28;95264;-90
2021/07/27 01:00:13;;;;;;;;;;;21.50;85.90;21.50;99460.00;;;;344613;28;83359;-91
2021/07/27 01:00:25;;;;;;;;;;;21.50;85.50;21.50;99466.00;;;;341247;28;96985;-91
2021/07/27 01:00:37;;;;;;;;;;;21.50;85.40;21.50;99470.00;;;;343277;28;82592;-91
2021/07/27 01:00:50;;;;;;;;;;;21.50;85.80;21.40;99461.00;;;;341002;28;96934;-92
2021/07/27 01:01:03;;;;;;;;;;;21.50;86.00;21.30;99466.00;;;;342542;28;83433;-90